createdAt,value
2018-12-22T00:01:52.100Z,75.08
2018-12-22T00:04:22.521Z,75.48
2018-12-22T00:06:53.862Z,75.50
2018-12-22T00:09:24.344Z,74.84
2018-12-22T00:11:54.899Z,75.82
2018-12-22T00:14:25.388Z,75.45
2018-12-22T00:16:57.831Z,75.62
2018-12-22T00:19:28.312Z,75.90
2018-12-22T00:21:58.823Z,75.80
2018-12-22T00:24:29.302Z,75.28
2018-12-22T00:26:59.786Z,75.75
2018-12-22T00:29:30.663Z,75.85
2018-12-22T00:32:01.728Z,75.73
2018-12-22T00:34:32.368Z,75.32
2018-12-22T00:37:03.087Z,75.80
2018-12-22T00:39:33.554Z,76.16
2018-12-22T00:42:04.071Z,75.96
2018-12-22T00:44:34.593Z,76.31
2018-12-22T00:47:05.336Z,76.42
2018-12-22T00:49:35.867Z,76.37
2018-12-22T00:52:06.424Z,76.47
2018-12-22T00:54:36.914Z,76.25
2018-12-22T00:57:07.355Z,76.53
2018-12-22T00:59:37.843Z,76.46
2018-12-22T01:02:08.351Z,76.96
2018-12-22T01:04:38.882Z,77.27
2018-12-22T01:07:09.424Z,77.69
2018-12-22T01:09:39.910Z,77.48
2018-12-22T01:12:10.594Z,77.74
2018-12-22T01:14:41.096Z,78.30
2018-12-22T01:17:11.711Z,79.04
2018-12-22T01:19:42.948Z,79.78
2018-12-22T01:22:13.447Z,80.35
2018-12-22T01:24:43.874Z,80.30
2018-12-22T01:27:16.423Z,81.57
2018-12-22T01:29:46.988Z,81.63
2018-12-22T01:32:17.602Z,82.96
2018-12-22T01:34:48.049Z,83.69
2018-12-22T01:37:18.681Z,83.91
2018-12-22T01:39:49.180Z,84.13
2018-12-22T01:42:19.709Z,84.99
2018-12-22T01:44:50.825Z,85.58
2018-12-22T01:47:21.352Z,85.86
2018-12-22T01:49:51.833Z,85.34
2018-12-22T01:52:22.358Z,86.37
2018-12-22T01:54:52.806Z,86.70
2018-12-22T01:57:23.482Z,87.57
2018-12-22T01:59:53.925Z,87.05
2018-12-22T02:02:24.590Z,87.52
2018-12-22T02:04:55.057Z,87.81
2018-12-22T02:07:25.581Z,88.20
2018-12-22T02:09:56.079Z,89.56
2018-12-22T02:12:26.491Z,90.06
2018-12-22T02:14:56.990Z,91.12
2018-12-22T02:17:27.469Z,91.97
2018-12-22T02:19:57.930Z,92.30
2018-12-22T02:22:28.437Z,92.41
2018-12-22T02:24:58.857Z,91.55
2018-12-22T02:27:29.316Z,91.94
2018-12-22T02:29:59.757Z,93.08
2018-12-22T02:32:30.234Z,92.20
2018-12-22T02:35:00.681Z,92.69
2018-12-22T02:37:31.186Z,93.49
2018-12-22T02:40:01.637Z,93.11
2018-12-22T02:42:32.118Z,93.76
2018-12-22T02:45:02.622Z,93.78
2018-12-22T02:47:33.163Z,93.84
2018-12-22T02:50:03.730Z,94.21
2018-12-22T02:52:34.192Z,95.76
2018-12-22T02:55:05.214Z,96.55
2018-12-22T02:57:35.642Z,96.77
2018-12-22T03:00:09.839Z,97.45
2018-12-22T03:02:40.248Z,98.48
2018-12-22T03:05:10.773Z,99.00
2018-12-22T03:07:41.271Z,100.00
2018-12-22T03:10:11.789Z,100.00
2018-12-22T03:12:42.274Z,100.00
2018-12-22T03:15:12.830Z,100.00
2018-12-22T03:17:43.312Z,100.00
2018-12-22T03:20:13.903Z,100.00
2018-12-22T03:22:44.440Z,100.00
2018-12-22T03:25:14.907Z,100.00
2018-12-22T03:27:45.390Z,100.00
2018-12-22T03:30:15.892Z,100.00
2018-12-22T03:32:46.485Z,100.00
2018-12-22T03:35:17.056Z,100.00
2018-12-22T03:37:47.543Z,100.00
2018-12-22T03:40:18.041Z,99.40
2018-12-22T03:42:48.505Z,98.58
2018-12-22T03:45:19.035Z,98.04
2018-12-22T03:47:49.535Z,97.84
2018-12-22T03:50:19.934Z,97.72
2018-12-22T03:52:50.427Z,97.32
2018-12-22T03:55:20.912Z,97.07
2018-12-22T03:57:51.372Z,97.65
2018-12-22T04:00:21.891Z,98.14
2018-12-22T04:02:52.504Z,98.25
2018-12-22T04:05:23.027Z,98.74
2018-12-22T04:07:53.509Z,98.42
2018-12-22T04:10:24.351Z,98.36
2018-12-22T04:12:54.863Z,98.30
2018-12-22T04:15:25.426Z,98.43
2018-12-22T04:17:55.953Z,98.07
2018-12-22T04:20:26.778Z,97.59
2018-12-22T04:22:57.895Z,96.79
2018-12-22T04:25:28.590Z,97.51
2018-12-22T04:27:59.327Z,96.72
2018-12-22T04:30:30.104Z,96.91
2018-12-22T04:33:00.571Z,96.26
2018-12-22T04:35:31.618Z,95.65
2018-12-22T04:38:02.145Z,95.64
2018-12-22T04:40:33.037Z,95.98
2018-12-22T04:43:03.647Z,95.71
2018-12-22T04:45:34.427Z,94.62
2018-12-22T04:48:05.797Z,94.93
2018-12-22T04:50:37.162Z,94.73
2018-12-22T04:53:07.730Z,94.46
2018-12-22T04:55:38.282Z,94.32
2018-12-22T04:58:08.800Z,94.40
2018-12-22T05:00:39.943Z,93.78
2018-12-22T05:03:11.855Z,94.12
2018-12-22T05:05:43.224Z,94.32
2018-12-22T05:08:13.732Z,93.88
2018-12-22T05:10:44.139Z,93.87
2018-12-22T05:13:14.630Z,93.71
2018-12-22T05:15:45.239Z,94.31
2018-12-22T05:18:15.757Z,94.32
2018-12-22T05:20:46.248Z,94.76
2018-12-22T05:23:17.007Z,94.60
2018-12-22T05:25:47.620Z,94.41
2018-12-22T05:28:18.139Z,94.92
2018-12-22T05:30:48.625Z,95.45
2018-12-22T05:33:19.244Z,95.30
2018-12-22T05:35:49.683Z,95.29
2018-12-22T05:38:20.213Z,95.55
2018-12-22T05:40:50.722Z,95.46
2018-12-22T05:43:22.668Z,95.50
2018-12-22T05:45:58.479Z,95.36
2018-12-22T05:48:28.947Z,94.93
2018-12-22T05:50:59.441Z,94.99
2018-12-22T05:53:30.955Z,94.63
2018-12-22T05:56:01.685Z,94.09
2018-12-22T05:58:32.824Z,93.54
2018-12-22T06:01:03.375Z,92.67
2018-12-22T06:03:33.946Z,92.41
2018-12-22T06:06:04.619Z,92.88
2018-12-22T06:08:35.200Z,92.54
2018-12-22T06:11:05.618Z,93.35
2018-12-22T06:13:36.236Z,92.58
2018-12-22T06:16:06.778Z,91.95
2018-12-22T06:18:37.367Z,91.55
2018-12-22T06:21:07.906Z,91.47
2018-12-22T06:23:38.446Z,90.59
2018-12-22T06:26:08.941Z,90.40
2018-12-22T06:28:39.486Z,89.54
2018-12-22T06:31:10.078Z,90.23
2018-12-22T06:33:40.583Z,88.55
2018-12-22T06:36:11.194Z,87.96
2018-12-22T06:38:41.718Z,88.57
2018-12-22T06:41:12.205Z,88.53
2018-12-22T06:43:42.775Z,87.96
2018-12-22T06:46:13.260Z,88.44
2018-12-22T06:48:43.757Z,87.59
2018-12-22T06:51:14.230Z,87.60
2018-12-22T06:53:44.741Z,88.56
2018-12-22T06:56:15.218Z,89.08
2018-12-22T06:58:45.668Z,90.42
2018-12-22T07:01:16.144Z,91.58
2018-12-22T07:03:46.724Z,92.06
2018-12-22T07:06:17.603Z,92.32
2018-12-22T07:08:48.093Z,92.11
2018-12-22T07:11:18.540Z,92.24
2018-12-22T07:13:49.022Z,92.66
2018-12-22T07:16:19.503Z,92.12
2018-12-22T07:18:49.928Z,92.22
2018-12-22T07:21:20.389Z,92.03
2018-12-22T07:23:50.834Z,92.57
2018-12-22T07:26:21.280Z,93.21
2018-12-22T07:28:51.733Z,93.59
2018-12-22T07:31:22.175Z,93.85
2018-12-22T07:33:52.644Z,93.40
2018-12-22T07:36:25.245Z,92.72
2018-12-22T07:38:55.715Z,91.90
2018-12-22T07:41:26.239Z,92.38
2018-12-22T07:43:56.976Z,91.10
2018-12-22T07:46:27.404Z,90.38
2018-12-22T07:48:57.888Z,89.62
2018-12-22T07:51:28.450Z,90.12
2018-12-22T07:53:59.035Z,90.51
2018-12-22T07:56:29.524Z,88.86
2018-12-22T07:58:59.971Z,88.70
2018-12-22T08:01:30.458Z,88.39
2018-12-22T08:04:01.017Z,88.48
2018-12-22T08:06:31.568Z,87.86
2018-12-22T08:09:02.107Z,87.42
2018-12-22T08:11:32.626Z,87.82
2018-12-22T08:14:03.369Z,87.57
2018-12-22T08:16:33.862Z,87.48
2018-12-22T08:19:05.819Z,87.30
2018-12-22T08:21:36.322Z,86.73
2018-12-22T08:24:06.769Z,86.23
2018-12-22T08:26:37.530Z,85.68
2018-12-22T08:29:07.990Z,85.43
2018-12-22T08:31:38.704Z,85.07
2018-12-22T08:34:09.527Z,84.77
2018-12-22T08:36:40.095Z,84.63
2018-12-22T08:39:10.542Z,84.35
2018-12-22T08:41:41.072Z,84.27
2018-12-22T08:44:11.918Z,84.50
2018-12-22T08:46:42.358Z,84.23
2018-12-22T08:49:12.778Z,84.04
2018-12-22T08:51:43.251Z,83.83
2018-12-22T08:54:14.738Z,83.29
2018-12-22T08:56:45.601Z,82.52
2018-12-22T08:59:16.090Z,82.83
2018-12-22T09:01:46.520Z,82.56
2018-12-22T09:04:17.026Z,82.41
2018-12-22T09:06:47.567Z,82.47
2018-12-22T09:09:18.032Z,82.88
2018-12-22T09:11:48.536Z,83.36
2018-12-22T09:14:18.995Z,83.57
2018-12-22T09:16:49.511Z,83.43
2018-12-22T09:19:19.995Z,83.36
2018-12-22T09:21:50.462Z,83.24
2018-12-22T09:24:20.903Z,83.58
2018-12-22T09:26:51.913Z,82.78
2018-12-22T09:29:22.372Z,82.49
2018-12-22T09:31:52.784Z,82.52
2018-12-22T09:34:23.333Z,83.01
2018-12-22T09:36:53.828Z,83.25
2018-12-22T09:39:24.392Z,83.08
2018-12-22T09:41:54.974Z,82.19
2018-12-22T09:44:25.423Z,82.37
2018-12-22T09:46:55.950Z,81.14
2018-12-22T09:49:26.408Z,81.07
2018-12-22T09:51:56.867Z,81.41
2018-12-22T09:54:27.341Z,81.66
2018-12-22T09:56:57.926Z,82.16
2018-12-22T09:59:28.385Z,81.47
2018-12-22T10:01:58.850Z,81.51
2018-12-22T10:04:29.304Z,82.05
2018-12-22T10:06:59.700Z,82.06
2018-12-22T10:09:30.233Z,82.02
2018-12-22T10:12:00.695Z,82.33
2018-12-22T10:14:31.160Z,81.58
2018-12-22T10:17:01.698Z,81.76
2018-12-22T10:19:32.138Z,80.71
2018-12-22T10:22:02.649Z,81.39
2018-12-22T10:24:33.180Z,81.81
2018-12-22T10:27:03.655Z,82.15
2018-12-22T10:29:34.077Z,82.03
2018-12-22T10:32:04.592Z,82.09
2018-12-22T10:34:35.208Z,81.61
2018-12-22T10:37:05.658Z,81.44
2018-12-22T10:39:36.173Z,81.23
2018-12-22T10:42:06.696Z,81.33
2018-12-22T10:44:37.335Z,80.40
2018-12-22T10:47:09.156Z,80.37
2018-12-22T10:49:39.783Z,79.89
2018-12-22T10:52:10.284Z,79.78
2018-12-22T10:54:40.779Z,79.90
2018-12-22T10:57:11.219Z,80.55
2018-12-22T10:59:41.714Z,80.31
2018-12-22T11:02:12.269Z,80.06
2018-12-22T11:04:42.775Z,80.60
2018-12-22T11:07:13.391Z,79.93
2018-12-22T11:09:44.007Z,79.71
2018-12-22T11:12:14.491Z,79.03
2018-12-22T11:14:45.028Z,79.54
2018-12-22T11:17:15.548Z,79.27
2018-12-22T11:19:46.045Z,78.22
2018-12-22T11:22:16.563Z,78.73
2018-12-22T11:24:47.075Z,79.10
2018-12-22T11:27:17.564Z,78.89
2018-12-22T11:29:48.094Z,80.08
2018-12-22T11:32:18.646Z,81.16
2018-12-22T11:34:49.135Z,82.70
2018-12-22T11:37:19.602Z,83.08
2018-12-22T11:39:50.309Z,82.21
2018-12-22T11:42:20.756Z,80.06
2018-12-22T11:44:51.666Z,78.94
2018-12-22T11:47:36.604Z,78.89
2018-12-22T11:50:11.912Z,78.41
2018-12-22T11:52:42.440Z,77.62
2018-12-22T11:55:12.873Z,77.50
2018-12-22T11:57:43.422Z,78.07
2018-12-22T12:00:14.048Z,76.47
2018-12-22T12:02:44.921Z,74.42
2018-12-22T12:05:15.384Z,75.95
2018-12-22T12:07:46.022Z,75.54
2018-12-22T12:10:16.493Z,75.63
2018-12-22T12:12:47.064Z,75.77
2018-12-22T12:15:22.863Z,76.36
2018-12-22T12:20:01.711Z,75.87
2018-12-22T12:22:32.155Z,76.84
2018-12-22T12:25:02.636Z,77.24
2018-12-22T12:27:33.127Z,79.75
2018-12-22T12:30:06.220Z,77.22
2018-12-22T12:32:36.683Z,77.74
2018-12-22T12:35:08.032Z,78.76
2018-12-22T12:37:38.604Z,80.60
2018-12-22T12:40:12.527Z,82.51
2018-12-22T12:42:42.964Z,84.17
2018-12-22T12:45:15.126Z,85.70
2018-12-22T12:47:47.207Z,87.40
2018-12-22T12:50:20.989Z,88.65
2018-12-22T12:52:51.596Z,89.16
2018-12-22T12:55:21.999Z,85.65
2018-12-22T12:57:52.467Z,85.49
2018-12-22T13:00:23.083Z,86.01
2018-12-22T13:02:53.512Z,86.56
2018-12-22T13:05:23.967Z,87.77
2018-12-22T13:07:54.538Z,88.29
2018-12-22T13:10:25.042Z,89.14
2018-12-22T13:14:07.932Z,89.57
2018-12-22T13:16:38.702Z,89.69
2018-12-22T13:19:09.227Z,90.03
2018-12-22T13:21:42.188Z,89.75
2018-12-22T13:24:12.783Z,89.15
2018-12-22T13:26:43.266Z,88.68
2018-12-22T13:29:13.712Z,88.57
2018-12-22T13:31:45.578Z,88.01
2018-12-22T13:34:16.016Z,87.46
2018-12-22T13:36:46.441Z,85.64
2018-12-22T13:39:20.681Z,84.76
2018-12-22T13:41:51.081Z,84.33
2018-12-22T13:44:21.644Z,84.70
2018-12-22T13:46:52.119Z,84.51
2018-12-22T13:49:22.651Z,83.95
2018-12-22T13:51:53.185Z,83.36
2018-12-22T13:54:26.595Z,82.65
2018-12-22T13:56:57.083Z,81.85
2018-12-22T13:59:27.565Z,80.92
2018-12-22T14:02:02.342Z,80.31
2018-12-22T14:04:36.206Z,79.98
2018-12-22T14:07:10.248Z,80.65
2018-12-22T14:09:40.800Z,80.29
2018-12-22T14:12:11.363Z,80.28
2018-12-22T14:14:43.071Z,80.70
2018-12-22T14:17:19.674Z,80.48
2018-12-22T14:20:13.548Z,80.94
2018-12-22T14:22:44.859Z,81.13
2018-12-22T14:25:27.834Z,81.75
2018-12-22T14:27:58.327Z,81.21
2018-12-22T14:30:28.881Z,80.84
2018-12-22T14:32:59.400Z,81.56
2018-12-22T14:35:39.625Z,81.50
2018-12-22T14:38:10.103Z,80.75
2018-12-22T14:40:40.615Z,80.62
2018-12-22T14:43:11.126Z,80.54
2018-12-22T14:45:41.619Z,81.53
2018-12-22T14:48:12.138Z,82.49
2018-12-22T14:50:42.622Z,83.18
2018-12-22T14:53:13.070Z,83.25
2018-12-22T14:55:43.525Z,84.00
2018-12-22T14:58:21.368Z,84.58
2018-12-22T15:00:52.389Z,84.87
2018-12-22T15:03:23.416Z,84.65
2018-12-22T15:05:54.471Z,84.72
2018-12-22T15:08:25.813Z,85.05
2018-12-22T15:10:56.938Z,84.90
2018-12-22T15:13:27.910Z,84.84
2018-12-22T15:15:59.274Z,85.11
2018-12-22T15:18:30.058Z,84.94
2018-12-22T15:21:01.199Z,84.12
2018-12-22T15:23:32.082Z,84.56
2018-12-22T15:26:02.834Z,83.68
2018-12-22T15:28:33.232Z,82.88
2018-12-22T15:31:04.664Z,83.35
2018-12-22T15:33:35.320Z,83.15
2018-12-22T15:36:06.192Z,82.51
2018-12-22T15:38:36.984Z,82.21
2018-12-22T15:41:07.502Z,81.12
2018-12-22T15:43:38.099Z,81.83
2018-12-22T15:46:08.627Z,80.95
2018-12-22T15:48:39.802Z,81.07
2018-12-22T15:51:10.343Z,81.00
2018-12-22T15:53:40.814Z,80.45
2018-12-22T15:56:11.291Z,80.82
2018-12-22T15:58:41.827Z,81.23
2018-12-22T16:01:12.301Z,82.38
2018-12-22T16:03:42.743Z,82.46
2018-12-22T16:06:13.239Z,83.22
2018-12-22T16:08:43.738Z,83.73
2018-12-22T16:11:14.234Z,84.02
2018-12-22T16:13:44.642Z,84.43
2018-12-22T16:16:15.287Z,84.97
2018-12-22T16:18:45.725Z,84.99
2018-12-22T16:21:16.233Z,85.78
2018-12-22T16:23:46.849Z,86.61
2018-12-22T16:26:18.396Z,87.45
2018-12-22T16:29:00.302Z,87.92
2018-12-22T16:31:30.788Z,87.93
2018-12-22T16:34:01.238Z,88.18
2018-12-22T16:36:31.683Z,87.25
2018-12-22T16:39:02.195Z,87.60
2018-12-22T16:41:32.657Z,87.11
2018-12-22T16:44:03.499Z,87.06
2018-12-22T16:46:33.913Z,86.83
2018-12-22T16:49:04.390Z,86.99
2018-12-22T16:51:34.845Z,86.53
2018-12-22T16:54:05.574Z,86.35
2018-12-22T16:56:36.119Z,85.63
2018-12-22T16:59:07.047Z,85.22
2018-12-22T17:02:00.925Z,85.56
2018-12-22T17:04:31.609Z,86.01
2018-12-22T17:07:02.019Z,86.07
2018-12-22T17:09:32.540Z,85.82
2018-12-22T17:12:02.966Z,86.11
2018-12-22T17:14:33.418Z,86.16
2018-12-22T17:17:03.906Z,86.47
2018-12-22T17:19:34.407Z,85.94
2018-12-22T17:23:16.748Z,85.99
2018-12-22T17:25:58.234Z,86.45
2018-12-22T17:28:28.847Z,86.30
2018-12-22T17:30:59.754Z,84.53
2018-12-22T17:33:30.384Z,83.74
2018-12-22T17:36:00.942Z,82.88
2018-12-22T17:38:31.500Z,83.32
2018-12-22T17:41:03.046Z,84.15
2018-12-22T17:43:33.794Z,84.29
2018-12-22T17:46:04.371Z,84.56
2018-12-22T17:48:34.891Z,84.90
2018-12-22T17:51:05.379Z,85.69
2018-12-22T17:53:35.873Z,85.65
2018-12-22T17:56:06.585Z,85.76
2018-12-22T17:58:37.394Z,85.95
2018-12-22T18:01:08.112Z,85.85
2018-12-22T18:03:39.221Z,86.81
2018-12-22T18:06:09.817Z,86.84
2018-12-22T18:08:40.345Z,86.44
2018-12-22T18:11:10.834Z,86.97
2018-12-22T18:13:41.284Z,87.10
2018-12-22T18:16:11.935Z,87.21
2018-12-22T18:18:42.431Z,87.41
2018-12-22T18:21:12.967Z,87.75
2018-12-22T18:23:43.582Z,88.03
2018-12-22T18:26:14.136Z,88.45
2018-12-22T18:28:44.604Z,88.57
2018-12-22T18:31:15.156Z,88.83
2018-12-22T18:33:45.575Z,89.43
2018-12-22T18:36:18.446Z,89.50
2018-12-22T18:38:48.884Z,89.45
2018-12-22T18:41:19.377Z,89.24
2018-12-22T18:43:49.840Z,88.20
2018-12-22T18:46:20.418Z,87.71
2018-12-22T18:48:50.907Z,87.66
2018-12-22T18:51:21.398Z,86.88
2018-12-22T18:53:52.024Z,86.47
2018-12-22T18:56:22.548Z,85.77
2018-12-22T18:58:53.371Z,85.10
2018-12-22T19:01:24.038Z,85.89
2018-12-22T19:03:54.513Z,85.53
2018-12-22T19:06:25.280Z,86.57
2018-12-22T19:08:59.846Z,87.23
2018-12-22T19:11:30.402Z,88.14
2018-12-22T19:14:00.923Z,88.29
2018-12-22T19:16:31.442Z,88.14
2018-12-22T19:19:01.986Z,88.16
2018-12-22T19:21:32.528Z,88.33
2018-12-22T19:24:33.510Z,88.89
2018-12-22T19:27:04.163Z,88.99
2018-12-22T19:29:34.743Z,89.43
2018-12-22T19:32:05.216Z,89.48
2018-12-22T19:34:35.757Z,89.39
2018-12-22T19:37:06.337Z,89.35
2018-12-22T19:39:36.820Z,88.54
2018-12-22T19:42:08.232Z,89.13
2018-12-22T19:44:39.978Z,88.72
2018-12-22T19:47:10.456Z,88.51
2018-12-22T19:49:41.846Z,89.09
2018-12-22T19:52:12.336Z,88.46
2018-12-22T19:54:42.922Z,88.86
2018-12-22T19:57:13.387Z,88.00
2018-12-22T19:59:44.038Z,88.03
2018-12-22T20:02:14.474Z,88.48
2018-12-22T20:04:45.994Z,87.98
2018-12-22T20:07:16.469Z,87.85
2018-12-22T20:09:46.910Z,87.19
2018-12-22T20:12:17.397Z,87.11
2018-12-22T20:14:47.823Z,87.28
2018-12-22T20:17:18.344Z,86.43
2018-12-22T20:19:48.843Z,86.59
2018-12-22T20:22:21.213Z,86.21
2018-12-22T20:24:51.640Z,85.40
2018-12-22T20:27:22.280Z,85.14
2018-12-22T20:29:52.711Z,85.31
2018-12-22T20:32:23.276Z,85.61
2018-12-22T20:34:53.737Z,86.25
2018-12-22T20:37:24.218Z,86.67
2018-12-22T20:39:54.737Z,86.88
2018-12-22T20:42:25.162Z,87.00
2018-12-22T20:44:55.668Z,87.29
2018-12-22T20:47:26.123Z,87.55
2018-12-22T20:49:56.610Z,90.55
2018-12-22T20:52:27.092Z,88.12
2018-12-22T20:54:57.582Z,83.10
2018-12-22T20:57:28.043Z,82.23
2018-12-22T20:59:58.465Z,82.18
2018-12-22T21:02:30.856Z,82.27
2018-12-22T21:05:01.402Z,83.37
2018-12-22T21:07:31.866Z,84.07
2018-12-22T21:10:02.375Z,84.04
2018-12-22T21:12:32.808Z,84.35
2018-12-22T21:15:03.435Z,84.30
2018-12-22T21:17:33.930Z,85.23
2018-12-22T21:20:04.668Z,85.65
2018-12-22T21:22:35.217Z,84.95
2018-12-22T21:25:06.112Z,83.92
2018-12-22T21:27:36.611Z,84.11
2018-12-22T21:30:07.662Z,84.38
2018-12-22T21:32:38.237Z,85.26
2018-12-22T21:35:08.871Z,85.84
2018-12-22T21:37:39.386Z,86.58
2018-12-22T21:40:10.008Z,87.07
2018-12-22T21:42:40.550Z,87.74
2018-12-22T21:45:11.123Z,88.15
2018-12-22T21:47:41.610Z,88.66
2018-12-22T21:50:12.076Z,88.90
2018-12-22T21:52:42.542Z,89.37
2018-12-22T21:55:12.996Z,90.23
2018-12-22T21:57:43.490Z,90.76
2018-12-22T22:00:13.953Z,91.12
2018-12-22T22:02:44.456Z,91.33
2018-12-22T22:05:14.926Z,91.91
2018-12-22T22:07:45.392Z,91.71
2018-12-22T22:10:15.846Z,91.55
2018-12-22T22:12:46.274Z,91.23
2018-12-22T22:15:16.744Z,90.92
2018-12-22T22:17:47.233Z,91.16
2018-12-22T22:20:17.712Z,91.10
2018-12-22T22:22:48.169Z,91.50
2018-12-22T22:25:18.620Z,91.83
2018-12-22T22:27:49.216Z,91.74
2018-12-22T22:30:20.954Z,91.72
2018-12-22T22:32:51.552Z,91.18
2018-12-22T22:35:22.034Z,90.78
2018-12-22T22:37:52.520Z,90.05
2018-12-22T22:40:23.007Z,89.69
2018-12-22T22:42:53.434Z,90.44
2018-12-22T22:45:23.866Z,90.95
2018-12-22T22:47:54.317Z,91.12
2018-12-22T22:50:24.801Z,91.48
2018-12-22T22:52:55.270Z,92.20
2018-12-22T22:55:25.843Z,92.56
2018-12-22T22:57:56.388Z,92.22
2018-12-22T23:00:36.832Z,91.70
2018-12-22T23:03:07.344Z,91.50
2018-12-22T23:05:38.012Z,91.73
2018-12-22T23:08:08.521Z,91.53
2018-12-22T23:10:39.425Z,92.27
2018-12-22T23:13:10.066Z,91.74
2018-12-22T23:15:40.566Z,91.91
2018-12-22T23:18:11.128Z,92.19
2018-12-22T23:20:41.630Z,91.78
2018-12-22T23:23:12.154Z,91.93
2018-12-22T23:25:42.667Z,91.15
2018-12-22T23:28:13.121Z,91.26
2018-12-22T23:30:43.677Z,90.65
2018-12-22T23:33:14.145Z,90.94
2018-12-22T23:35:45.346Z,91.70
2018-12-22T23:38:15.817Z,91.44
2018-12-22T23:40:46.322Z,90.78
2018-12-22T23:43:16.811Z,90.70
2018-12-22T23:45:47.437Z,90.98
2018-12-22T23:48:17.945Z,90.86
2018-12-22T23:50:48.420Z,90.17
2018-12-22T23:53:18.875Z,90.72
2018-12-22T23:55:49.403Z,90.55
2018-12-22T23:58:19.821Z,91.30
